Historyczne dane pomiarowe

Dodano dane terminowe – wersja testowa.

Dane z okresu 1951-2019

Wersja bazy: 1.34 [2019-03-16, lista zmian], aktualizacja planowana na 2019-04-15

Dane meteo z obszaru Polski uzyskane na podstawie danych udostępnionych przez Instytut Meteorologii i Gospodarki Wodnej – Państwowy Instytut Badawczy.

 

Wybierz Datę:    

       

TemperaturaWilgotnośćWiatrCiśnienieOpadyŚniegCzas trwania zjawisk
 Stacja t tx tn tng RH VA  wxwx mslp ppp RRR   cm mm wxwxwxwxwxwxwx
1961-08-14 13.3 17.5 7.6- 82.8- 7.7 1.0---- 1.4------------
1961-08-13 12.3 16.7 9.0- 78.8- 2.7 2.3---- 0.0------------
1961-08-12 15.5 21.1 13.0- 87.3- 6.7 1.0---- 0.7------------
1961-08-11 15.2 17.9 13.2- 92.8- 7.3 0.7---- 0.2------------
1961-08-10 15.8 21.2 10.6- 84.8- 6.0 1.7---- 23.4------------
1961-08-09 16.8 22.3 12.6- 79.8- 3.0 1.0---- 0.0------------
1961-08-08 15.5 19.8 9.3- 77.5- 4.7 1.0---- 0.3------------
1961-08-07 14.3 17.1 11.5- 94.0- 6.3 0.7---- 7.0------------
1961-08-06 18.7 25.3 14.6- 71.0- 3.0 1.7---- 24.8------------
1961-08-05 15.7 19.4 13.0- 83.3- 7.3 1.3---- 1.9------------
1961-08-04 13.2 15.0 7.7- 90.8- 8.0 3.7---- 4.4------------
1961-08-03 12.2 16.9 10.0- 92.8- 5.3 1.0---- 2.8------------
1961-08-02 15.2 19.8 9.7- 85.5- 7.3 1.0---- 3.3------------
1961-08-01 13.5 15.4 12.3- 93.5- 8.0 3.0---- 2.6------------
1961-07-31 13.3 14.3 12.1- 93.5- 8.0 1.7---- 29.0------------
1961-07-30 14.7 19.1 10.3- 87.5- 7.7 1.0---- 13.4------------
1961-07-29 12.7 16.6 9.8- 86.8- 8.0 2.3---- 0.0------------
1961-07-28 12.4 13.6 10.8- 89.8- 8.0 0.7---- 0.8------------
1961-07-27 14.6 18.8 12.0- 85.8- 7.3 2.3---- 2.4------------
1961-07-26 16.6 20.0 11.7- 81.0- 8.0 3.0---- 2.6------------
1961-07-25 13.3 15.3 10.5- 83.8- 8.0 1.7---- 1.3------------
1961-07-24 12.7 15.3 10.9- 87.3- 6.0 1.7---- 0.0------------
1961-07-23 13.7 15.9 12.1- 84.0- 6.7 2.3---- 1.0------------
1961-07-22 13.8 16.5 12.2- 91.3- 8.0 1.0---- 6.3------------
1961-07-21 13.9 17.2 11.2- 94.8- 8.0 1.0---- 21.4------------
1961-07-20 14.5 19.9 9.3- 86.5- 7.7 1.0---- 4.2------------
1961-07-19 14.7 19.7 10.9- 84.8- 7.7 1.7---- 0.0------------
1961-07-18 13.7 15.7 11.8- 94.0- 8.0 0.7---- 7.0------------
1961-07-17 15.3 19.8 11.6- 80.0- 6.7 1.7---- 33.7------------
1961-07-16 13.4 15.9 10.4- 89.0- 8.0 0.7---- 8.2------------
1961-07-15 13.8 19.8 10.3- 79.5- 4.3 0.7---- 0.0------------
1961-07-14 13.6 18.9 11.9- 82.8- 8.0 6.7---- 0.1------------
1961-07-13 19.8 26.7 12.8- 85.5- 5.0 1.3---- 13.0------------
1961-07-12 16.6 21.8 12.8- 87.3- 4.0 2.3---- 0.0------------
1961-07-11 14.0 18.5 8.2- 79.0- 6.0 1.3---- 7.2------------
1961-07-10 12.6 15.6 10.0- 85.8- 6.7 1.0---- 1.4------------
1961-07-09 13.5 16.2 11.0- 90.0- 8.0 3.7---- 6.9------------
1961-07-08 13.6 18.0 8.3- 86.3- 8.0 1.7---- 9.6------------
1961-07-07 10.9 14.8 8.0- 87.5- 8.0 2.3---- 0.6------------
1961-07-06 10.1 13.0 6.7- 83.8- 8.0 3.0---- 1.6------------
1961-07-05 11.2 15.7 9.7- 76.3- 5.3 5.0---- 1.1------------
1961-07-04 15.2 18.8 10.5- 81.3- 6.3 3.0---- 0.3------------
1961-07-03 21.8 30.8 12.6- 64.0- 5.3 2.0---- 0.0------------
1961-07-02 20.8 28.0 8.2- 60.8- 0.0 0.7---- 0.0------------
1961-07-01 18.1 25.8 5.2- 70.0- 0.0 1.0---- 0.0------------
1961-06-30 16.4 22.9 11.2- 61.3- 0.0 1.3---- 0.0------------
1961-06-29 14.2 18.4 11.6- 76.3- 5.3 2.3---- 0.0------------
1961-06-28 13.8 21.5 11.7- 61.3- 3.7 7.3---- 0.0------------
1961-06-27 21.8 30.0 15.0- 69.0- 5.0 3.7---- 0.0------------
1961-06-26 18.9 26.4 12.8- 65.8- 0.0 2.3---- 0.0------------
1961-06-25 20.6 25.6 13.0- 55.3- 3.0 4.3---- 0.0------------
1961-06-24 16.9 20.7 12.5- 59.8- 5.0 5.3---- 0.0------------
1961-06-23 16.3 19.9 9.3- 70.0- 4.0 2.3---- 0.0------------
1961-06-22 15.1 19.8 6.1- 66.8- 3.3 1.7---- 0.0------------
1961-06-21 13.3 18.7 7.9- 67.0- 4.7 1.7---- 0.4------------
1961-06-20 12.5 17.1 8.6- 67.0- 5.0 4.0---- 0.0------------
1961-06-19 13.9 17.7 10.8- 62.0- 3.3 4.0---- 0.0------------
1961-06-18 18.9 25.1 15.3- 78.5- 5.7 3.0---- 2.2------------
1961-06-17 16.9 21.4 10.3- 75.8- 5.3 2.3---- 0.0------------
1961-06-16 12.4 14.2 10.8- 84.8- 8.0 2.3---- 0.5------------
316.7 ms

 

Źródłem pochodzenia danych jest Instytut Meteorologii i Gospodarki Wodnej – Państwowy Instytut Badawczy. Dane Instytutu Meteorologii i Gospodarki Wodnej – Państwowego Instytutu Badawczego zostały przetworzone.

Dane źródłowe można odnaleźć na stronie https://dane.imgw.pl